Time;durP1;ratioP1;P1;durP2;ratioP2;P2;SDS_P1;SDS_P2;PMS_P1;PMS_P2;Temp;Humidity;BMP_temperature;BMP_pressure;BME280_temperature;BME280_humidity;BME280_pressure;Samples;Min_cycle;Max_cycle;Signal;HPM_P1;HPM_P2
2021/08/11 00:01:34;;;;;;;3.03;2.73;;;17.00;99.90;;;;;;5015038;28;20222;-62
2021/08/11 00:04:00;;;;;;;2.20;2.00;;;17.00;99.90;;;;;;5014984;28;20249;-64
2021/08/11 00:06:25;;;;;;;2.90;2.50;;;17.00;99.90;;;;;;5033123;28;20179;-61
2021/08/11 00:08:51;;;;;;;2.97;2.70;;;17.00;99.90;;;;;;5034111;28;20186;-63
2021/08/11 00:11:17;;;;;;;4.23;2.97;;;17.00;99.90;;;;;;5033661;28;20694;-61
2021/08/11 00:13:43;;;;;;;3.03;2.73;;;17.00;99.90;;;;;;5034483;28;20272;-63
2021/08/11 00:16:09;;;;;;;5.33;2.77;;;17.00;99.90;;;;;;5034473;28;20457;-61
2021/08/11 00:18:35;;;;;;;2.60;2.40;;;17.00;99.90;;;;;;5033851;28;20565;-63
2021/08/11 00:21:01;;;;;;;4.30;2.60;;;17.00;99.90;;;;;;5033798;28;20399;-61
2021/08/11 00:23:26;;;;;;;3.30;2.20;;;17.00;99.90;;;;;;5034500;28;20170;-61
2021/08/11 00:25:54;;;;;;;2.20;2.00;;;17.00;99.90;;;;;;5034311;28;20506;-64
2021/08/11 00:28:23;;;;;;;2.80;2.60;;;17.00;99.90;;;;;;5033626;28;20202;-63
2021/08/11 00:30:50;;;;;;;3.30;3.00;;;17.00;99.90;;;;;;5033941;28;20407;-64
2021/08/11 00:33:25;;;;;;;2.73;2.53;;;17.00;99.90;;;;;;5111072;27;20544;-63
2021/08/11 00:35:51;;;;;;;4.37;2.70;;;17.00;99.90;;;;;;5111030;28;20812;-64
2021/08/11 00:38:17;;;;;;;3.40;3.00;;;16.90;99.90;;;;;;5105439;28;20641;-64
2021/08/11 00:40:43;;;;;;;3.30;2.67;;;16.90;99.90;;;;;;5091003;28;20216;-64
2021/08/11 00:43:10;;;;;;;4.80;2.67;;;16.90;99.90;;;;;;5090513;28;20251;-62
2021/08/11 00:45:37;;;;;;;2.33;2.13;;;16.90;99.90;;;;;;5090573;28;20171;-64
2021/08/11 00:48:04;;;;;;;2.47;2.27;;;16.90;99.90;;;;;;5090003;28;21138;-62
2021/08/11 00:50:31;;;;;;;4.43;3.00;;;16.80;99.90;;;;;;5090453;28;20426;-64
2021/08/11 00:52:57;;;;;;;2.73;2.53;;;16.80;99.90;;;;;;5090432;28;20508;-62
2021/08/11 00:55:23;;;;;;;2.17;1.97;;;16.80;99.90;;;;;;5090382;28;20886;-65
2021/08/11 00:57:51;;;;;;;5.60;2.83;;;16.80;99.90;;;;;;5089932;28;20726;-63
2021/08/11 01:00:21;;;;;;;3.70;2.80;;;16.70;99.90;;;;;;5090297;28;20979;-63
2021/08/11 01:02:47;;;;;;;2.70;2.20;;;16.70;99.90;;;;;;5090417;28;20423;-62
2021/08/11 01:05:14;;;;;;;3.13;2.60;;;16.70;99.90;;;;;;5089894;28;20414;-62
2021/08/11 01:07:41;;;;;;;2.87;2.60;;;16.70;99.90;;;;;;5089738;28;20402;-63
2021/08/11 01:10:08;;;;;;;2.60;2.40;;;16.70;99.90;;;;;;5090016;28;20373;-62
2021/08/11 01:12:34;;;;;;;3.60;3.13;;;16.70;99.90;;;;;;5089884;28;20457;-62
2021/08/11 01:15:00;;;;;;;3.63;2.90;;;16.70;99.90;;;;;;5090192;28;20409;-63
2021/08/11 01:17:28;;;;;;;3.07;2.87;;;16.80;99.90;;;;;;5089923;28;20410;-65
2021/08/11 01:19:56;;;;;;;8.20;3.00;;;16.70;99.90;;;;;;5088366;28;20671;-64
2021/08/11 01:22:42;;;;;;;2.20;2.10;;;16.80;99.90;;;;;;5089988;28;20406;-63
2021/08/11 01:25:18;;;;;;;2.87;2.67;;;16.70;99.90;;;;;;5089941;28;20406;-63
2021/08/11 01:28:21;;;;;;;3.47;2.80;;;16.70;99.90;;;;;;5089505;28;20407;-61
2021/08/11 01:31:28;;;;;;;3.20;2.50;;;16.70;99.90;;;;;;5089831;28;20410;-62
2021/08/11 01:33:57;;;;;;;2.27;2.07;;;16.70;99.90;;;;;;5083080;28;20453;-63
2021/08/11 01:36:40;;;;;;;2.93;2.73;;;16.70;99.90;;;;;;5089956;28;20386;-62
2021/08/11 01:39:18;;;;;;;2.77;2.57;;;16.70;99.90;;;;;;5088189;28;20413;-63
2021/08/11 01:41:54;;;;;;;3.67;2.27;;;16.70;99.90;;;;;;5089639;28;20440;-64
2021/08/11 01:44:22;;;;;;;2.30;2.17;;;16.70;99.90;;;;;;5078287;28;20497;-61
2021/08/11 01:46:49;;;;;;;2.87;2.57;;;16.70;99.90;;;;;;5075551;28;20395;-62
2021/08/11 01:49:16;;;;;;;3.00;2.70;;;16.60;99.90;;;;;;5075695;28;20443;-63
2021/08/11 01:51:46;;;;;;;6.83;3.13;;;16.60;99.90;;;;;;5075994;28;20453;-62
2021/08/11 01:54:13;;;;;;;2.97;2.53;;;16.60;99.90;;;;;;5076083;28;20426;-65
2021/08/11 01:56:41;;;;;;;2.80;2.50;;;16.60;99.90;;;;;;5075133;28;20415;-62
2021/08/11 01:59:08;;;;;;;4.80;2.97;;;16.60;99.90;;;;;;5075542;28;20438;-64
2021/08/11 02:01:39;;;;;;;3.47;3.00;;;16.60;99.90;;;;;;5075871;28;20394;-62
2021/08/11 02:04:07;;;;;;;2.83;2.50;;;16.60;99.90;;;;;;5075574;28;20777;-64
2021/08/11 02:06:34;;;;;;;2.97;2.67;;;16.50;99.90;;;;;;5075164;28;20461;-62
2021/08/11 02:09:01;;;;;;;2.10;2.00;;;16.50;99.90;;;;;;5075488;28;20793;-62
2021/08/11 02:11:27;;;;;;;3.17;2.87;;;16.30;99.90;;;;;;5075192;28;20836;-62
2021/08/11 02:13:53;;;;;;;2.10;1.90;;;16.20;99.90;;;;;;5075751;28;20411;-63
2021/08/11 02:16:19;;;;;;;2.47;2.27;;;16.20;99.90;;;;;;5075717;28;20398;-63
2021/08/11 02:18:45;;;;;;;2.83;2.63;;;16.10;99.90;;;;;;5074957;28;20589;-63
2021/08/11 02:21:11;;;;;;;2.70;2.53;;;16.10;99.90;;;;;;5075519;28;20407;-62
2021/08/11 02:23:37;;;;;;;3.13;2.83;;;16.00;99.90;;;;;;5075399;28;20815;-63
2021/08/11 02:26:17;;;;;;;2.53;2.33;;;16.00;99.90;;;;;;5074617;28;20165;-63
2021/08/11 02:28:58;;;;;;;3.80;2.17;;;16.00;99.90;;;;;;5074783;28;20836;-62
2021/08/11 02:31:50;;;;;;;2.80;2.40;;;15.90;99.90;;;;;;5075016;28;20480;-62
2021/08/11 02:34:42;;;;;;;4.90;2.47;;;15.90;99.90;;;;;;5075670;28;20438;-62
2021/08/11 02:37:18;;;;;;;3.30;3.00;;;15.80;99.90;;;;;;5074659;28;20481;-62
2021/08/11 02:40:02;;;;;;;2.67;2.43;;;15.80;99.90;;;;;;5075188;28;20527;-61
2021/08/11 02:42:34;;;;;;;2.90;2.63;;;15.80;99.90;;;;;;5074505;28;20423;-64
2021/08/11 02:45:03;;;;;;;2.77;2.57;;;15.80;99.90;;;;;;5074893;28;20395;-62
2021/08/11 02:47:32;;;;;;;3.50;2.07;;;15.80;99.90;;;;;;5074525;28;20760;-63
2021/08/11 02:50:00;;;;;;;2.63;2.40;;;15.80;99.90;;;;;;5074849;28;20487;-64
2021/08/11 02:52:26;;;;;;;3.37;3.00;;;15.80;99.90;;;;;;5074703;28;20463;-63
2021/08/11 02:54:53;;;;;;;3.63;3.13;;;15.80;99.90;;;;;;5073806;28;20762;-63
2021/08/11 02:57:20;;;;;;;2.70;2.50;;;15.70;99.90;;;;;;5074003;28;20434;-63
2021/08/11 02:59:46;;;;;;;3.07;2.77;;;15.70;99.90;;;;;;5074446;28;20411;-61
2021/08/11 03:02:13;;;;;;;3.17;2.87;;;15.80;99.90;;;;;;5074574;28;20442;-64
2021/08/11 03:04:39;;;;;;;3.10;2.83;;;15.80;99.90;;;;;;5074511;28;20459;-61
2021/08/11 03:07:05;;;;;;;3.17;2.87;;;15.80;99.90;;;;;;5074112;28;20448;-63
2021/08/11 03:09:31;;;;;;;4.50;2.50;;;15.80;99.90;;;;;;5074350;28;20426;-61
2021/08/11 03:11:58;;;;;;;3.93;3.20;;;15.80;99.90;;;;;;5073862;28;20461;-63
2021/08/11 03:14:24;;;;;;;3.67;2.70;;;15.70;99.90;;;;;;5074402;28;20857;-61
2021/08/11 03:16:50;;;;;;;2.90;2.57;;;15.80;99.90;;;;;;5073849;28;20435;-63
2021/08/11 03:19:16;;;;;;;3.97;3.57;;;15.70;99.90;;;;;;5074148;28;20431;-61
2021/08/11 03:21:42;;;;;;;3.47;3.23;;;15.70;99.90;;;;;;5074248;28;20172;-63
2021/08/11 03:24:07;;;;;;;3.20;2.90;;;15.70;99.90;;;;;;5072612;28;20417;-64
2021/08/11 03:26:33;;;;;;;3.50;3.03;;;15.70;99.90;;;;;;5073592;28;20180;-60
2021/08/11 03:29:00;;;;;;;2.23;2.07;;;15.70;99.90;;;;;;5073929;28;20204;-63
2021/08/11 03:31:28;;;;;;;6.37;3.20;;;15.70;99.90;;;;;;5073786;28;20497;-62
2021/08/11 03:33:54;;;;;;;4.43;2.90;;;15.60;99.90;;;;;;5073614;28;20419;-62
2021/08/11 03:36:19;;;;;;;3.30;3.10;;;15.60;99.90;;;;;;5073986;28;20425;-61
2021/08/11 03:38:45;;;;;;;3.33;2.43;;;15.50;99.90;;;;;;5073298;28;20509;-63
2021/08/11 03:41:11;;;;;;;2.97;2.67;;;15.40;99.90;;;;;;5073609;28;20172;-62
2021/08/11 03:43:36;;;;;;;3.03;2.80;;;15.30;99.90;;;;;;5072569;28;20260;-63
2021/08/11 03:46:02;;;;;;;3.10;2.20;;;15.30;99.90;;;;;;5073886;28;20255;-62
2021/08/11 03:48:28;;;;;;;2.47;2.33;;;15.30;99.90;;;;;;5073009;28;20545;-64
2021/08/11 03:50:53;;;;;;;3.03;2.70;;;15.30;99.90;;;;;;5073754;28;20689;-62
2021/08/11 03:53:19;;;;;;;3.77;3.23;;;15.30;99.90;;;;;;5073479;28;20200;-62
2021/08/11 03:55:44;;;;;;;2.13;1.93;;;15.20;99.90;;;;;;5073328;28;20169;-62
2021/08/11 03:58:10;;;;;;;3.67;3.47;;;15.20;99.90;;;;;;5073289;28;20381;-61
2021/08/11 04:00:36;;;;;;;4.33;3.40;;;15.20;99.90;;;;;;5073593;28;20654;-64
2021/08/11 04:03:01;;;;;;;3.60;2.90;;;15.20;99.90;;;;;;5073262;28;20298;-61
2021/08/11 04:05:27;;;;;;;3.57;3.07;;;15.30;99.90;;;;;;5073527;28;20167;-61
2021/08/11 04:07:53;;;;;;;5.70;3.07;;;15.30;99.90;;;;;;5072772;28;20171;-61
2021/08/11 04:10:18;;;;;;;3.40;3.10;;;15.30;99.90;;;;;;5073352;28;20589;-64
2021/08/11 04:12:44;;;;;;;2.57;2.37;;;15.30;99.90;;;;;;5073297;28;20549;-62
2021/08/11 04:15:10;;;;;;;2.70;2.50;;;15.40;99.90;;;;;;5073330;28;20164;-63
2021/08/11 04:17:36;;;;;;;2.77;2.57;;;15.40;99.90;;;;;;5072688;28;20168;-62
2021/08/11 04:20:04;;;;;;;4.90;3.60;;;15.40;99.90;;;;;;5073281;28;20439;-62
2021/08/11 04:22:30;;;;;;;3.43;3.10;;;15.40;99.90;;;;;;5073346;28;20406;-62
2021/08/11 04:24:55;;;;;;;3.10;2.80;;;15.40;99.90;;;;;;5073219;28;20410;-61
2021/08/11 04:27:21;;;;;;;3.13;2.90;;;15.50;99.90;;;;;;5072621;28;20172;-64
2021/08/11 04:29:46;;;;;;;5.30;2.90;;;15.50;99.90;;;;;;5073222;28;20222;-61
2021/08/11 04:32:12;;;;;;;6.40;2.60;;;15.40;99.90;;;;;;5072803;28;20291;-64
2021/08/11 04:34:38;;;;;;;3.33;3.10;;;15.40;99.90;;;;;;5053285;28;20177;-61
2021/08/11 04:37:05;;;;;;;3.30;3.00;;;15.40;99.90;;;;;;5052628;28;20176;-63
2021/08/11 04:39:31;;;;;;;3.83;3.40;;;15.40;99.90;;;;;;5053133;28;20202;-62
2021/08/11 04:41:56;;;;;;;2.40;2.20;;;15.50;99.90;;;;;;5053157;28;20445;-63
2021/08/11 04:44:22;;;;;;;2.97;2.63;;;15.50;99.90;;;;;;5053202;28;20173;-61
2021/08/11 04:46:48;;;;;;;2.60;2.40;;;15.50;99.90;;;;;;5052786;28;20228;-62
2021/08/11 04:49:13;;;;;;;3.80;3.43;;;15.60;99.90;;;;;;5071875;28;20713;-63
2021/08/11 04:51:39;;;;;;;2.93;2.57;;;15.60;99.90;;;;;;5072968;28;20193;-62
2021/08/11 04:54:04;;;;;;;3.77;2.60;;;15.70;99.90;;;;;;5072960;28;20496;-64
2021/08/11 04:56:30;;;;;;;3.47;2.60;;;15.80;99.90;;;;;;5072722;28;20256;-65
2021/08/11 04:58:56;;;;;;;3.40;3.10;;;15.90;99.90;;;;;;5072635;28;20188;-64
2021/08/11 05:01:21;;;;;;;3.13;2.70;;;16.10;99.90;;;;;;5073082;28;20658;-63
2021/08/11 05:03:47;;;;;;;3.07;2.50;;;16.20;99.90;;;;;;5072636;28;20177;-64
2021/08/11 05:06:13;;;;;;;3.53;3.23;;;16.30;99.90;;;;;;5073119;28;20524;-62
2021/08/11 05:08:39;;;;;;;2.67;2.47;;;16.40;99.90;;;;;;5072539;28;20247;-64
2021/08/11 05:11:06;;;;;;;3.23;2.93;;;16.60;99.90;;;;;;5072609;28;20913;-63
2021/08/11 05:13:32;;;;;;;2.83;2.63;;;16.60;99.90;;;;;;5072899;28;20407;-63
2021/08/11 05:15:58;;;;;;;2.77;2.57;;;16.60;99.90;;;;;;5072879;28;20407;-62
2021/08/11 05:18:23;;;;;;;3.17;2.90;;;16.70;99.90;;;;;;5072823;28;20435;-63
2021/08/11 05:20:50;;;;;;;2.90;2.70;;;16.90;99.90;;;;;;5076559;28;20486;-61
2021/08/11 05:23:16;;;;;;;3.00;2.30;;;17.00;99.90;;;;;;5076389;28;20161;-63
2021/08/11 05:25:42;;;;;;;4.23;2.80;;;17.00;99.90;;;;;;5076456;28;20495;-63
2021/08/11 05:28:08;;;;;;;2.63;2.43;;;17.00;99.90;;;;;;5075920;28;20199;-61
2021/08/11 05:30:35;;;;;;;3.90;2.23;;;17.00;99.90;;;;;;5075188;28;20173;-61
2021/08/11 05:33:00;;;;;;;2.90;2.50;;;17.10;99.90;;;;;;5075610;28;20453;-61
2021/08/11 05:35:26;;;;;;;3.60;2.63;;;17.10;99.90;;;;;;5076057;28;20410;-63
2021/08/11 05:37:52;;;;;;;3.00;2.63;;;17.20;99.90;;;;;;5075722;28;20205;-62
2021/08/11 05:40:18;;;;;;;3.00;2.70;;;17.30;99.90;;;;;;5076299;28;20162;-63
2021/08/11 05:42:45;;;;;;;3.23;2.93;;;17.40;99.90;;;;;;5076011;28;20178;-61
2021/08/11 05:45:11;;;;;;;4.47;4.17;;;17.50;99.90;;;;;;5075994;28;20440;-61
2021/08/11 05:47:36;;;;;;;3.47;2.57;;;17.60;99.90;;;;;;5075337;28;20938;-63
2021/08/11 05:50:03;;;;;;;3.47;3.10;;;17.70;99.90;;;;;;5075600;28;20432;-64
2021/08/11 05:52:29;;;;;;;5.20;2.13;;;17.80;99.90;;;;;;5075739;28;20669;-63
2021/08/11 05:54:55;;;;;;;3.20;2.90;;;18.10;99.90;;;;;;5074543;28;20517;-61
2021/08/11 05:57:21;;;;;;;2.43;2.33;;;18.30;99.90;;;;;;5075453;28;20385;-63
2021/08/11 05:59:47;;;;;;;2.60;2.40;;;18.70;99.90;;;;;;5075817;28;20219;-63
2021/08/11 06:02:13;;;;;;;2.30;2.10;;;19.10;99.90;;;;;;5075014;28;20183;-64
2021/08/11 06:04:39;;;;;;;3.10;2.80;;;19.30;99.90;;;;;;5075541;28;20415;-62
2021/08/11 06:07:05;;;;;;;4.27;3.10;;;19.30;99.90;;;;;;5075235;28;20632;-62
2021/08/11 06:09:30;;;;;;;4.33;3.10;;;19.40;99.90;;;;;;5075731;28;20203;-62
2021/08/11 06:11:56;;;;;;;2.67;2.47;;;19.50;99.90;;;;;;5075345;28;20730;-64
2021/08/11 06:14:22;;;;;;;2.60;2.40;;;19.50;99.90;;;;;;5075537;28;20168;-61
2021/08/11 06:16:47;;;;;;;3.13;2.70;;;19.60;99.90;;;;;;5073452;28;20171;-63
2021/08/11 06:19:13;;;;;;;6.77;3.20;;;19.60;99.90;;;;;;5075358;28;20184;-61
2021/08/11 06:21:39;;;;;;;3.97;3.57;;;19.50;99.90;;;;;;5075314;28;20169;-64
2021/08/11 06:24:04;;;;;;;2.77;2.57;;;19.60;99.90;;;;;;5075268;28;20189;-63
2021/08/11 06:26:30;;;;;;;2.50;2.30;;;19.70;99.90;;;;;;5075090;28;20169;-65
2021/08/11 06:28:56;;;;;;;2.70;2.50;;;19.90;99.90;;;;;;5074720;28;20192;-63
2021/08/11 06:31:24;;;;;;;5.37;2.87;;;20.00;99.90;;;;;;5074578;28;20416;-63
2021/08/11 06:33:51;;;;;;;2.40;2.20;;;20.20;99.90;;;;;;5075721;28;20172;-64
2021/08/11 06:36:17;;;;;;;4.27;2.60;;;20.30;99.90;;;;;;5074919;28;20796;-62
2021/08/11 06:38:43;;;;;;;2.53;2.33;;;20.50;99.90;;;;;;5074548;28;20394;-64
2021/08/11 06:41:09;;;;;;;2.57;2.37;;;20.70;99.90;;;;;;5075099;28;20248;-62
2021/08/11 06:43:35;;;;;;;2.40;2.10;;;20.90;99.90;;;;;;5075126;28;20395;-63
2021/08/11 06:46:00;;;;;;;4.93;2.50;;;21.10;99.90;;;;;;5074575;28;20414;-64
2021/08/11 06:48:26;;;;;;;3.57;2.10;;;21.30;99.90;;;;;;5074445;28;20725;-63
2021/08/11 06:50:52;;;;;;;3.70;2.43;;;21.30;99.90;;;;;;5074941;28;20530;-63
2021/08/11 06:53:17;;;;;;;2.60;2.40;;;21.50;99.90;;;;;;5074728;28;20730;-64
2021/08/11 06:55:43;;;;;;;4.37;2.67;;;21.50;99.90;;;;;;5074643;28;20174;-64
2021/08/11 06:58:09;;;;;;;3.40;2.40;;;21.50;99.90;;;;;;5074191;28;20214;-62
2021/08/11 07:00:34;;;;;;;2.00;1.90;;;21.50;99.90;;;;;;5074356;28;20300;-63
2021/08/11 07:03:00;;;;;;;2.90;2.53;;;21.50;99.90;;;;;;5074571;28;20724;-63
2021/08/11 07:05:26;;;;;;;2.97;2.00;;;21.50;99.90;;;;;;5074695;28;20217;-64
2021/08/11 07:07:51;;;;;;;3.60;2.37;;;21.60;99.90;;;;;;5073999;28;20477;-62
2021/08/11 07:10:17;;;;;;;3.20;2.60;;;21.70;99.90;;;;;;5074467;28;20176;-61
2021/08/11 07:12:44;;;;;;;3.17;2.87;;;21.80;99.90;;;;;;5074409;28;20202;-62
2021/08/11 07:15:10;;;;;;;2.50;2.30;;;21.80;99.90;;;;;;5074110;28;20539;-62
2021/08/11 07:17:36;;;;;;;2.50;2.30;;;21.80;99.90;;;;;;5073777;28;20434;-61
2021/08/11 07:20:11;;;;;;;2.10;2.00;;;21.90;99.90;;;;;;5074185;28;20431;-63
2021/08/11 07:22:37;;;;;;;2.83;2.63;;;22.00;99.90;;;;;;5074055;28;20751;-61
2021/08/11 07:25:03;;;;;;;2.40;2.20;;;22.00;99.90;;;;;;5074206;28;20485;-64
2021/08/11 07:27:28;;;;;;;3.57;2.20;;;21.90;99.90;;;;;;5073651;28;20395;-63
2021/08/11 07:29:54;;;;;;;3.90;2.40;;;21.90;99.90;;;;;;5073535;28;20565;-62
2021/08/11 07:32:19;;;;;;;2.00;1.90;;;21.80;99.90;;;;;;5073682;28;20200;-63
2021/08/11 07:34:45;;;;;;;3.47;2.27;;;21.90;99.90;;;;;;5074024;28;20184;-63
2021/08/11 07:37:10;;;;;;;2.40;2.20;;;22.00;99.90;;;;;;5073653;28;20167;-64
2021/08/11 07:39:36;;;;;;;2.97;2.50;;;22.00;99.90;;;;;;5073758;28;20244;-62
2021/08/11 07:42:02;;;;;;;2.90;2.43;;;22.10;99.90;;;;;;5073339;28;20225;-63
2021/08/11 07:44:27;;;;;;;3.03;2.73;;;22.40;99.90;;;;;;5073762;28;20177;-61
2021/08/11 07:46:53;;;;;;;4.57;3.23;;;22.90;99.90;;;;;;5073012;28;20582;-65
2021/08/11 07:49:19;;;;;;;2.37;2.20;;;23.40;99.90;;;;;;5072218;28;20192;-62
2021/08/11 07:51:44;;;;;;;2.60;2.07;;;24.10;99.90;;;;;;5073637;28;20201;-63
2021/08/11 07:54:10;;;;;;;4.13;2.50;;;24.80;99.90;;;;;;5073297;28;20183;-63
2021/08/11 07:56:36;;;;;;;3.03;2.50;;;25.50;99.90;;;;;;5073437;28;20531;-65
2021/08/11 07:59:01;;;;;;;2.43;2.33;;;25.90;99.90;;;;;;5073451;28;20555;-64
2021/08/11 08:01:27;;;;;;;2.97;2.67;;;26.30;99.80;;;;;;5073370;28;20187;-64
2021/08/11 08:03:52;;;;;;;3.20;2.77;;;26.80;99.40;;;;;;5073450;28;20160;-63
2021/08/11 08:06:18;;;;;;;2.77;2.57;;;27.60;98.50;;;;;;5073666;28;20635;-63
2021/08/11 08:08:44;;;;;;;3.20;2.77;;;28.30;97.20;;;;;;5072896;28;20204;-62
2021/08/11 08:11:09;;;;;;;2.77;2.57;;;29.30;95.40;;;;;;5073138;28;20658;-60
2021/08/11 08:13:35;;;;;;;3.50;2.77;;;30.00;94.20;;;;;;5073494;28;20504;-65
2021/08/11 08:16:01;;;;;;;5.83;2.30;;;30.90;92.40;;;;;;5073683;28;20523;-63
2021/08/11 08:18:26;;;;;;;2.80;2.60;;;31.70;91.10;;;;;;5072834;28;20718;-64
2021/08/11 08:20:54;;;;;;;2.17;2.07;;;32.50;89.90;;;;;;5073515;28;20528;-65
2021/08/11 08:23:21;;;;;;;2.13;2.03;;;33.20;84.20;;;;;;5072983;28;20180;-64
2021/08/11 08:25:47;;;;;;;3.10;2.90;;;33.70;82.40;;;;;;5073240;28;20414;-61
2021/08/11 08:28:13;;;;;;;2.37;2.27;;;34.20;81.10;;;;;;5072674;28;20438;-63
2021/08/11 08:30:40;;;;;;;6.27;2.63;;;34.80;78.70;;;;;;5071530;28;20394;-63
2021/08/11 08:33:06;;;;;;;3.07;2.87;;;35.40;77.00;;;;;;5073047;28;20224;-62
2021/08/11 08:35:32;;;;;;;3.60;3.30;;;36.00;74.70;;;;;;5073324;28;20419;-63
2021/08/11 08:37:58;;;;;;;2.60;2.50;;;36.40;71.20;;;;;;5072530;28;20275;-63
2021/08/11 08:40:38;;;;;;;2.90;2.67;;;36.50;70.70;;;;;;5073146;28;20506;-64
2021/08/11 08:43:05;;;;;;;4.67;3.27;;;36.80;69.30;;;;;;5071896;28;20245;-61
2021/08/11 08:45:32;;;;;;;3.07;2.80;;;37.20;67.70;;;;;;5072743;28;20933;-64
2021/08/11 08:48:02;;;;;;;3.83;3.60;;;37.10;66.10;;;;;;5072617;28;20404;-63
2021/08/11 08:50:28;;;;;;;3.50;3.30;;;37.00;66.10;;;;;;5072999;28;20431;-65
2021/08/11 08:52:53;;;;;;;3.50;3.30;;;37.30;66.40;;;;;;5072911;28;20453;-64
2021/08/11 08:55:20;;;;;;;3.20;3.00;;;37.90;63.70;;;;;;5076746;28;20173;-63
2021/08/11 08:57:45;;;;;;;2.97;2.83;;;37.80;63.30;;;;;;5076251;28;20200;-64
2021/08/11 09:00:12;;;;;;;5.40;3.60;;;37.80;61.90;;;;;;5076431;28;20447;-64
2021/08/11 09:02:41;;;;;;;3.43;2.90;;;37.90;62.50;;;;;;5076666;28;20234;-62
2021/08/11 09:05:09;;;;;;;3.17;2.97;;;38.30;62.60;;;;;;5076508;28;20419;-64
2021/08/11 09:07:41;;;;;;;3.37;3.17;;;38.40;59.60;;;;;;5076160;28;20415;-63
2021/08/11 09:10:19;;;;;;;3.47;3.27;;;38.50;59.40;;;;;;5076461;28;20438;-62
2021/08/11 09:12:46;;;;;;;3.37;3.07;;;38.70;59.80;;;;;;5076184;28;20458;-62
2021/08/11 09:15:33;;;;;;;2.80;2.60;;;38.90;59.30;;;;;;5076194;28;20502;-63
2021/08/11 09:18:09;;;;;;;2.77;2.67;;;39.60;57.80;;;;;;5076165;28;20415;-62
2021/08/11 09:20:35;;;;;;;3.67;3.37;;;40.00;57.80;;;;;;5075135;28;20422;-63
2021/08/11 09:23:01;;;;;;;3.10;2.90;;;40.40;56.60;;;;;;5076197;28;20497;-63
2021/08/11 09:25:26;;;;;;;4.50;3.13;;;40.60;55.10;;;;;;5076469;28;20431;-62
2021/08/11 09:27:52;;;;;;;3.70;3.40;;;40.70;54.90;;;;;;5075889;28;20694;-63
2021/08/11 09:30:20;;;;;;;2.70;2.60;;;40.80;54.50;;;;;;5076160;28;20168;-63
2021/08/11 09:32:54;;;;;;;3.20;3.00;;;40.80;54.20;;;;;;5076071;28;20181;-63
2021/08/11 09:35:26;;;;;;;3.20;3.00;;;41.00;53.50;;;;;;5074941;28;20484;-64
2021/08/11 09:37:53;;;;;;;3.27;3.17;;;41.00;52.90;;;;;;5075780;28;20901;-62
2021/08/11 09:40:22;;;;;;;3.70;3.40;;;41.30;52.70;;;;;;5076336;28;20437;-64
2021/08/11 09:42:51;;;;;;;3.80;3.60;;;41.30;52.30;;;;;;5075005;28;20435;-62
2021/08/11 09:45:16;;;;;;;3.20;2.90;;;41.20;53.20;;;;;;5075592;28;20501;-65
2021/08/11 09:48:03;;;;;;;4.53;3.50;;;41.00;53.00;;;;;;5075445;28;20484;-63
2021/08/11 09:50:44;;;;;;;3.27;3.07;;;40.70;52.70;;;;;;5076263;28;20168;-64
2021/08/11 09:53:11;;;;;;;3.40;3.10;;;40.30;53.10;;;;;;5074563;28;20414;-64
2021/08/11 09:56:02;;;;;;;2.87;2.70;;;39.50;53.60;;;;;;5076238;28;20419;-64
2021/08/11 09:58:38;;;;;;;2.60;2.50;;;39.30;53.70;;;;;;5075462;28;20774;-64
2021/08/11 10:01:24;;;;;;;2.80;2.70;;;39.70;53.20;;;;;;5074743;28;20411;-62
2021/08/11 10:04:02;;;;;;;3.37;3.17;;;40.10;53.10;;;;;;5075366;28;20403;-64
2021/08/11 10:06:42;;;;;;;2.90;2.80;;;40.10;52.70;;;;;;5075460;28;20410;-62
2021/08/11 10:09:19;;;;;;;3.10;2.90;;;40.10;52.20;;;;;;5075669;28;20443;-62
2021/08/11 10:11:50;;;;;;;2.40;2.30;;;40.20;52.60;;;;;;5075623;28;20434;-64
2021/08/11 10:14:17;;;;;;;3.33;3.10;;;39.70;52.30;;;;;;5075211;28;20515;-62
2021/08/11 10:16:43;;;;;;;3.30;3.10;;;38.60;52.50;;;;;;5074714;28;20450;-63
2021/08/11 10:19:10;;;;;;;3.13;2.93;;;37.90;53.80;;;;;;5074088;28;20518;-63
2021/08/11 10:22:01;;;;;;;3.43;3.20;;;36.90;55.20;;;;;;5074848;28;20451;-64
2021/08/11 10:24:28;;;;;;;3.73;3.43;;;35.90;56.30;;;;;;5069956;28;20415;-62
2021/08/11 10:26:55;;;;;;;4.70;3.13;;;35.30;57.60;;;;;;5074828;28;20415;-65
2021/08/11 10:29:21;;;;;;;2.97;2.60;;;35.10;58.30;;;;;;5075131;28;20404;-63
2021/08/11 10:31:47;;;;;;;4.00;3.57;;;35.10;57.90;;;;;;5074912;28;20427;-65
2021/08/11 10:34:16;;;;;;;2.70;2.50;;;34.30;59.20;;;;;;5073896;28;20411;-62
2021/08/11 10:36:42;;;;;;;3.57;3.27;;;33.70;59.20;;;;;;5074362;28;20476;-65
2021/08/11 10:39:09;;;;;;;3.30;3.00;;;33.30;60.40;;;;;;5074964;28;20441;-62
2021/08/11 10:41:36;;;;;;;4.43;3.33;;;32.80;63.00;;;;;;5074984;28;20410;-63
2021/08/11 10:44:04;;;;;;;3.10;2.83;;;32.60;63.80;;;;;;5074857;28;20403;-62
2021/08/11 10:46:40;;;;;;;3.00;2.80;;;32.70;63.60;;;;;;5074685;28;20721;-68
2021/08/11 10:49:09;;;;;;;3.30;3.10;;;33.00;62.60;;;;;;5073993;28;20414;-62
2021/08/11 10:51:41;;;;;;;4.50;3.10;;;33.10;64.60;;;;;;5074380;28;20779;-64
2021/08/11 10:54:08;;;;;;;4.97;4.50;;;33.40;63.90;;;;;;5074829;28;20399;-63
2021/08/11 10:56:48;;;;;;;8.23;2.90;;;33.70;61.70;;;;;;5074341;28;20403;-66
2021/08/11 10:59:22;;;;;;;6.10;3.30;;;34.00;60.60;;;;;;5074675;28;20423;-64
2021/08/11 11:01:49;;;;;;;4.90;3.67;;;34.10;61.30;;;;;;5074584;28;20860;-63
2021/08/11 11:04:37;;;;;;;3.70;3.40;;;34.40;60.00;;;;;;5073335;28;20433;-64
2021/08/11 11:07:08;;;;;;;3.73;3.33;;;34.80;59.10;;;;;;5073822;28;20880;-65
2021/08/11 11:09:35;;;;;;;3.27;2.97;;;35.10;58.60;;;;;;5074740;28;20442;-63
2021/08/11 11:12:21;;;;;;;3.97;3.67;;;35.30;58.70;;;;;;5074476;28;20365;-64
2021/08/11 11:14:52;;;;;;;3.77;3.23;;;35.20;58.10;;;;;;5074257;28;20830;-64
2021/08/11 11:17:22;;;;;;;3.13;2.93;;;34.70;58.90;;;;;;5071714;28;20905;-61
2021/08/11 11:20:08;;;;;;;3.30;3.10;;;34.20;63.50;;;;;;5072958;28;20518;-63
2021/08/11 11:22:56;;;;;;;3.80;3.40;;;33.50;62.00;;;;;;5052805;28;20854;-61
2021/08/11 11:25:58;;;;;;;3.53;3.23;;;32.90;64.30;;;;;;5054073;28;20399;-65
2021/08/11 11:29:02;;;;;;;3.60;3.17;;;32.50;65.30;;;;;;5044938;28;20501;-65
2021/08/11 11:31:31;;;;;;;2.80;2.60;;;32.30;65.50;;;;;;5053809;28;20829;-64
2021/08/11 11:34:20;;;;;;;2.93;2.73;;;32.20;66.60;;;;;;5053769;28;20377;-64
2021/08/11 11:36:55;;;;;;;2.90;2.70;;;32.20;65.30;;;;;;5069087;28;20382;-61
2021/08/11 11:39:22;;;;;;;7.47;3.23;;;32.00;64.60;;;;;;5073535;28;20808;-67
2021/08/11 11:42:06;;;;;;;3.10;2.90;;;31.50;66.80;;;;;;5073568;28;20442;-73
2021/08/11 11:44:48;;;;;;;3.43;3.13;;;31.10;69.80;;;;;;5073096;28;20398;-62
2021/08/11 11:47:40;;;;;;;6.90;3.17;;;30.60;71.70;;;;;;5072438;28;20411;-63
2021/08/11 11:50:32;;;;;;;3.10;2.80;;;30.20;73.10;;;;;;5073086;28;20419;-64
2021/08/11 12:00:01;;;;;;;3.53;3.33;;;29.60;77.20;;;;;;5031354;28;20416;-63
2021/08/11 12:02:28;;;;;;;3.07;2.87;;;29.60;78.70;;;;;;5014987;28;20846;-64
2021/08/11 12:05:02;;;;;;;3.07;2.60;;;29.60;77.10;;;;;;5031499;28;20313;-65
2021/08/11 12:07:30;;;;;;;4.80;2.90;;;29.50;76.90;;;;;;5030928;28;20387;-62
2021/08/11 12:09:56;;;;;;;4.47;3.63;;;29.40;76.00;;;;;;5031454;28;20429;-63
2021/08/11 12:12:22;;;;;;;7.27;4.63;;;29.30;76.40;;;;;;5031311;28;20417;-65
2021/08/11 12:14:47;;;;;;;4.97;3.00;;;29.30;76.30;;;;;;5031567;28;20911;-64
2021/08/11 12:17:27;;;;;;;2.80;2.60;;;29.20;76.10;;;;;;5030604;28;20185;-65
2021/08/11 12:19:53;;;;;;;4.03;3.03;;;28.90;78.40;;;;;;5031107;28;20212;-65
2021/08/11 12:22:36;;;;;;;2.73;2.53;;;28.70;80.10;;;;;;5031248;28;20463;-63
2021/08/11 12:25:02;;;;;;;2.70;2.50;;;28.60;79.00;;;;;;5015616;28;20178;-64
2021/08/11 12:27:28;;;;;;;3.50;3.20;;;28.60;79.10;;;;;;5057620;28;20418;-62
2021/08/11 12:30:18;;;;;;;4.30;3.57;;;28.70;80.20;;;;;;5073161;28;20189;-63
2021/08/11 12:32:44;;;;;;;2.63;2.43;;;28.80;80.50;;;;;;5072784;28;20678;-62
2021/08/11 12:35:12;;;;;;;3.80;3.03;;;29.00;78.00;;;;;;5073137;28;20377;-65
2021/08/11 12:37:46;;;;;;;3.67;3.37;;;29.10;79.30;;;;;;5072776;28;20469;-62
2021/08/11 12:40:26;;;;;;;3.40;3.10;;;29.10;78.50;;;;;;5073317;28;20424;-66
2021/08/11 12:42:56;;;;;;;3.00;2.80;;;28.80;78.90;;;;;;5072918;28;20436;-64
2021/08/11 12:45:22;;;;;;;3.20;2.90;;;28.70;81.90;;;;;;5072668;28;20528;-65
2021/08/11 12:47:47;;;;;;;3.03;2.83;;;28.70;80.60;;;;;;5071286;28;20422;-63
2021/08/11 12:50:18;;;;;;;3.43;3.13;;;28.50;80.00;;;;;;5073205;28;20423;-65
2021/08/11 12:52:57;;;;;;;3.00;2.63;;;28.50;84.70;;;;;;5071845;28;20285;-64
2021/08/11 12:55:36;;;;;;;3.47;2.60;;;28.50;84.10;;;;;;5073272;28;20493;-64
2021/08/11 12:58:02;;;;;;;5.83;3.10;;;28.50;81.60;;;;;;5072636;28;20427;-64
2021/08/11 13:00:44;;;;;;;3.50;3.00;;;28.50;80.80;;;;;;5072518;28;20402;-64
2021/08/11 13:03:11;;;;;;;3.17;2.87;;;28.40;82.10;;;;;;5072578;28;20448;-65
2021/08/11 13:05:51;;;;;;;2.87;2.67;;;28.30;82.50;;;;;;5072913;28;20798;-64